Pensacola Naval Air Station/Forrest Sherman field
KNPA : now visible

Airfield :











YOU CAN JOIN US ON...

 
LOGIN :

Register | Disclaimer

   EN    FR    IT 

 









Legend :    VFR   Marginal VFR   IFR   Intensive IFR   Very Intensive IFR
Visi :
Ceiling :
>= 8 km
>= 3000ft
5 to 8 km
1000 to 3000 ft
1500m to 5 km
500 to 1000 ft
800 to 1500m
200 to 500 ft
< 800m
< 200 ft
Symbols :   Thunderstorms  Fog  Heavy snow  Heavy precipitations  Wind > 20 kt







- Airport Elevation : 28 ft


KNPA - Pensacola Naval Air Station/Forrest Sherman field

CURRENT METAR :
  • 210956Z AUTO 00000KT 10SM OVC080 24/23 A3002 RMK AO2 SLP168 T02390233 $

EXPIRED METARs :
  • 210856Z AUTO 00000KT 10SM FEW100 23/23 A3000 RMK AO2 SLP160 T02330228 55004 $
  • 210756Z AUTO 00000KT 10SM CLR 24/23 A3000 RMK AO2 SLP160 T02390233 $

TAF TAF KNPA
Valid from the 21 at 07:00 until the 22 at 07:00 UTC


2107/2207 18007KT 9999 FEW120 QNH2996INS
FM211000 16004KT 9999 VCTS BKN020CB OVC250 QNH2998INS
TEMPO 2111/2117 VRB15G25KT 4800 TSRA BKN020CB
FM212000 18008KT 9999 SCT020 SCT120 QNH3000INS T25/2109Z T31/2120Z FN00182
KZJX FIR / North America



MET'MAP, your aeronautical weather chart ! - Copyright ORBIFLY December 2007 - Disclaimer

ORBIFLY MET'MAP TEAM :

Programming & Development : Alexandra Zaïnal
Concept & Development : Baudouin d'Aumeries
Co-Development & Prog : Marc-Olivier Méhu
Technical & hardware support : Manuel Goepfert

Contact : metmap@orbifly.com




SOURCES & CREDITS :

   NOAA       Earth
Advisory